Time;durP1;ratioP1;P1;durP2;ratioP2;P2;SDS_P1;SDS_P2;PMS_P1;PMS_P2;Temp;Humidity;BMP_temperature;BMP_pressure;BME280_temperature;BME280_humidity;BME280_pressure;Samples;Min_cycle;Max_cycle;Signal;HPM_P1;HPM_P2
2021/04/13 00:01:21;;;;;;;6.50;3.75;;;1.60;99.90;;;;;;464210;254;28173;-76
2021/04/13 00:03:22;;;;;;;4.85;3.75;;;1.60;99.90;;;;;;464202;256;27962;-76
2021/04/13 00:05:24;;;;;;;4.20;3.80;;;1.50;99.90;;;;;;464182;254;28079;-78
2021/04/13 00:07:25;;;;;;;6.68;4.80;;;1.50;99.90;;;;;;464137;256;27523;-77
2021/04/13 00:09:26;;;;;;;4.18;3.78;;;1.60;99.90;;;;;;463943;253;27477;-77
2021/04/13 00:11:27;;;;;;;4.18;3.50;;;1.50;99.90;;;;;;464161;256;27435;-78
2021/04/13 00:13:29;;;;;;;4.60;4.20;;;1.50;99.90;;;;;;464115;257;27485;-78
2021/04/13 00:15:30;;;;;;;3.87;3.42;;;1.60;99.90;;;;;;463984;253;27475;-78
2021/04/13 00:17:31;;;;;;;3.80;3.30;;;1.60;99.90;;;;;;463982;253;27458;-78
2021/04/13 00:19:32;;;;;;;5.80;3.45;;;1.70;99.90;;;;;;463919;256;27465;-78
2021/04/13 00:21:34;;;;;;;3.35;3.05;;;1.70;99.90;;;;;;464180;249;27447;-78
2021/04/13 00:23:35;;;;;;;3.62;3.33;;;1.80;99.90;;;;;;463825;253;27489;-78
2021/04/13 00:25:36;;;;;;;3.62;3.33;;;1.80;99.90;;;;;;464021;253;27943;-79
2021/04/13 00:27:37;;;;;;;4.15;3.85;;;1.80;99.90;;;;;;464108;253;28017;-77
2021/04/13 00:29:39;;;;;;;3.90;3.60;;;1.80;99.90;;;;;;464124;257;28239;-77
2021/04/13 00:31:41;;;;;;;4.12;3.65;;;1.80;99.90;;;;;;464059;257;28133;-77
2021/04/13 00:33:41;;;;;;;4.37;3.62;;;1.90;99.90;;;;;;464119;253;27855;-78
2021/04/13 00:35:48;;;;;;;3.80;3.50;;;1.90;99.90;;;;;;464113;254;27461;-79
2021/04/13 00:37:46;;;;;;;6.20;2.85;;;1.80;99.90;;;;;;464075;256;27485;-77
2021/04/13 00:39:48;;;;;;;4.57;3.05;;;1.80;99.90;;;;;;463950;256;27442;-77
2021/04/13 00:41:49;;;;;;;3.37;2.90;;;1.70;99.90;;;;;;464099;256;27423;-77
2021/04/13 00:43:50;;;;;;;3.10;2.90;;;1.60;99.90;;;;;;464091;257;27455;-78
2021/04/13 00:45:51;;;;;;;5.25;3.15;;;1.40;99.90;;;;;;464008;253;27434;-80
2021/04/13 00:47:53;;;;;;;2.97;2.67;;;1.30;99.90;;;;;;464040;257;27888;-76
2021/04/13 00:49:54;;;;;;;3.28;2.50;;;1.30;99.90;;;;;;463958;257;27557;-77
2021/04/13 00:51:55;;;;;;;3.22;2.40;;;1.30;99.90;;;;;;463952;257;27535;-78
2021/04/13 00:53:56;;;;;;;4.05;2.50;;;1.40;99.90;;;;;;463951;257;27577;-79
2021/04/13 00:55:58;;;;;;;5.57;4.00;;;1.30;99.90;;;;;;464268;254;27590;-76
2021/04/13 00:57:59;;;;;;;4.53;3.70;;;1.20;99.90;;;;;;464056;256;27979;-77
2021/04/13 01:00:00;;;;;;;2.90;2.50;;;1.00;99.90;;;;;;464153;256;28871;-78
2021/04/13 01:02:02;;;;;;;3.33;3.08;;;1.10;99.90;;;;;;464001;256;27519;-76
2021/04/13 01:04:03;;;;;;;4.37;3.70;;;1.30;99.90;;;;;;463909;256;28084;-78
2021/04/13 01:06:04;;;;;;;4.30;3.90;;;1.40;99.90;;;;;;463997;254;27581;-76
2021/04/13 01:08:05;;;;;;;7.57;5.25;;;1.30;99.90;;;;;;464113;257;27801;-77
2021/04/13 01:10:06;;;;;;;6.97;5.60;;;1.30;99.90;;;;;;463974;257;27455;-78
2021/04/13 01:12:08;;;;;;;5.55;5.00;;;1.30;99.90;;;;;;464204;257;27493;-79
2021/04/13 01:14:09;;;;;;;7.95;6.68;;;1.40;99.90;;;;;;464237;257;27462;-77
2021/04/13 01:16:10;;;;;;;7.50;6.20;;;1.50;99.90;;;;;;464012;249;27426;-77
2021/04/13 01:18:11;;;;;;;8.25;6.35;;;1.50;99.90;;;;;;464123;257;27430;-80
2021/04/13 01:20:13;;;;;;;6.93;5.90;;;1.70;99.90;;;;;;463807;249;27517;-78
2021/04/13 01:22:14;;;;;;;8.82;6.25;;;1.60;99.90;;;;;;463823;253;27442;-77
2021/04/13 01:24:25;;;;;;;5.85;5.30;;;1.70;99.90;;;;;;463827;249;27426;-78
2021/04/13 01:26:22;;;;;;;6.95;6.25;;;1.70;99.90;;;;;;463700;254;27450;-77
2021/04/13 01:28:24;;;;;;;7.60;6.12;;;1.70;99.90;;;;;;464052;256;27447;-78
2021/04/13 01:30:25;;;;;;;6.87;6.18;;;1.70;99.90;;;;;;464053;253;27586;-78
2021/04/13 01:32:26;;;;;;;6.32;5.72;;;1.60;99.90;;;;;;464191;256;27467;-79
2021/04/13 01:34:32;;;;;;;7.05;6.00;;;1.70;99.90;;;;;;464041;256;27535;-80
2021/04/13 01:36:29;;;;;;;9.20;6.82;;;1.80;99.90;;;;;;464174;254;27437;-78
2021/04/13 01:38:40;;;;;;;7.53;6.45;;;1.80;99.90;;;;;;464076;257;27430;-79
2021/04/13 01:40:40;;;;;;;7.05;5.78;;;1.80;99.90;;;;;;464051;249;28165;-78
2021/04/13 01:42:32;;;;;;;9.50;7.30;;;1.90;99.90;;;;;;464249;256;28484;-79
2021/04/13 01:44:34;;;;;;;7.07;6.37;;;1.70;99.90;;;;;;464062;256;28024;-78
2021/04/13 01:46:35;;;;;;;8.25;7.15;;;1.60;99.90;;;;;;463988;254;27539;-76
2021/04/13 01:48:36;;;;;;;11.93;7.85;;;1.50;99.90;;;;;;464131;256;27461;-77
2021/04/13 01:50:37;;;;;;;13.15;8.73;;;1.40;99.90;;;;;;464150;256;27506;-77
2021/04/13 01:52:39;;;;;;;9.77;7.87;;;1.40;99.90;;;;;;464114;256;27557;-77
2021/04/13 01:54:40;;;;;;;9.70;8.55;;;1.40;99.90;;;;;;464103;256;27497;-79
2021/04/13 01:56:41;;;;;;;11.95;9.38;;;1.40;99.90;;;;;;463950;254;27567;-78
2021/04/13 01:58:42;;;;;;;13.10;8.73;;;1.40;99.90;;;;;;463880;256;27489;-79
2021/04/13 02:00:46;;;;;;;10.55;8.27;;;1.40;99.90;;;;;;464114;256;27577;-77
2021/04/13 02:02:45;;;;;;;11.73;8.77;;;1.40;99.90;;;;;;463805;256;29038;-80
2021/04/13 02:04:47;;;;;;;15.52;10.45;;;1.40;99.90;;;;;;463733;257;28025;-78
2021/04/13 02:06:50;;;;;;;12.77;9.43;;;1.40;99.90;;;;;;463703;254;27434;-79
2021/04/13 02:08:50;;;;;;;22.30;10.32;;;1.40;99.90;;;;;;464042;256;27518;-77
2021/04/13 02:10:52;;;;;;;16.15;10.80;;;1.40;99.90;;;;;;464038;256;27433;-77
2021/04/13 02:12:51;;;;;;;12.15;10.05;;;1.40;99.90;;;;;;463775;256;27526;-80
2021/04/13 02:14:52;;;;;;;16.23;11.00;;;1.50;99.90;;;;;;463824;257;27501;-80
2021/04/13 02:16:54;;;;;;;14.68;11.50;;;1.40;99.90;;;;;;463829;254;27665;-80
2021/04/13 02:18:55;;;;;;;13.02;10.43;;;1.40;99.90;;;;;;464023;257;27976;-77
2021/04/13 02:20:56;;;;;;;13.45;10.05;;;1.40;99.90;;;;;;464070;256;28003;-79
2021/04/13 02:22:57;;;;;;;15.60;9.82;;;1.50;99.90;;;;;;464222;256;27431;-76
2021/04/13 02:24:59;;;;;;;15.63;11.50;;;1.40;99.90;;;;;;464002;256;27892;-77
2021/04/13 02:27:00;;;;;;;14.43;10.55;;;1.50;99.90;;;;;;463872;254;27539;-79
2021/04/13 02:29:01;;;;;;;13.57;10.57;;;1.50;99.90;;;;;;463853;256;27445;-80
2021/04/13 02:31:02;;;;;;;10.95;8.15;;;1.50;99.90;;;;;;464112;256;27597;-81
2021/04/13 02:33:04;;;;;;;9.70;8.45;;;1.60;99.90;;;;;;464182;256;27494;-78
2021/04/13 02:35:05;;;;;;;11.30;9.35;;;1.60;99.90;;;;;;464219;254;27447;-77
2021/04/13 02:37:06;;;;;;;11.40;8.55;;;1.70;99.90;;;;;;464160;257;29018;-78
2021/04/13 02:39:11;;;;;;;11.57;9.20;;;1.70;99.90;;;;;;463919;256;28014;-79
2021/04/13 02:41:13;;;;;;;10.70;8.57;;;1.80;99.90;;;;;;464210;256;27523;-77
2021/04/13 02:43:10;;;;;;;8.35;7.20;;;1.90;99.90;;;;;;463917;256;27447;-80
2021/04/13 02:45:11;;;;;;;8.77;7.97;;;1.90;99.90;;;;;;464071;254;27458;-79
2021/04/13 02:47:13;;;;;;;10.60;7.93;;;1.90;99.90;;;;;;463812;256;27569;-81
2021/04/13 02:49:14;;;;;;;7.68;6.93;;;1.90;99.90;;;;;;463758;257;27419;-79
2021/04/13 02:51:15;;;;;;;11.73;8.55;;;1.80;99.90;;;;;;464088;257;27514;-78
2021/04/13 02:53:16;;;;;;;10.32;7.60;;;1.80;99.90;;;;;;464119;257;27557;-78
2021/04/13 02:55:17;;;;;;;10.55;7.25;;;1.80;99.90;;;;;;464114;254;27544;-78
2021/04/13 02:57:19;;;;;;;9.70;8.07;;;1.80;99.90;;;;;;463830;257;28886;-80
2021/04/13 02:59:20;;;;;;;12.37;9.90;;;1.90;99.90;;;;;;464258;256;28005;-78
2021/04/13 03:01:21;;;;;;;14.45;11.12;;;1.60;99.90;;;;;;464112;256;28002;-77
2021/04/13 03:03:22;;;;;;;11.45;9.68;;;1.50;99.90;;;;;;464193;256;27435;-79
2021/04/13 03:05:24;;;;;;;14.48;10.50;;;1.50;99.90;;;;;;464194;254;27519;-78
2021/04/13 03:07:25;;;;;;;10.48;9.35;;;1.40;99.90;;;;;;464148;256;27518;-76
2021/04/13 03:09:26;;;;;;;12.80;9.63;;;1.40;99.90;;;;;;464191;257;27455;-76
2021/04/13 03:11:27;;;;;;;13.02;9.45;;;1.60;99.90;;;;;;463815;256;27526;-78
2021/04/13 03:13:29;;;;;;;8.82;7.93;;;1.50;99.90;;;;;;463885;256;27534;-79
2021/04/13 03:15:30;;;;;;;10.98;9.18;;;1.60;99.90;;;;;;463892;254;27987;-79
2021/04/13 03:17:31;;;;;;;9.02;7.55;;;1.60;99.90;;;;;;464093;256;28135;-77
2021/04/13 03:19:33;;;;;;;9.32;7.93;;;1.60;99.90;;;;;;464186;256;27985;-78
2021/04/13 03:21:34;;;;;;;10.07;8.07;;;1.60;99.90;;;;;;464071;257;27534;-77
2021/04/13 03:23:35;;;;;;;9.70;8.70;;;1.50;99.90;;;;;;464237;256;27552;-78
2021/04/13 03:25:36;;;;;;;9.40;7.55;;;1.50;99.90;;;;;;464013;254;27478;-80
2021/04/13 03:27:38;;;;;;;12.63;8.95;;;1.50;99.90;;;;;;463864;257;27458;-80
2021/04/13 03:29:39;;;;;;;10.10;8.00;;;1.40;99.90;;;;;;463903;256;27489;-79
2021/04/13 03:31:40;;;;;;;11.20;8.43;;;1.40;99.90;;;;;;463832;256;27461;-80
2021/04/13 03:33:41;;;;;;;10.00;7.95;;;1.40;99.90;;;;;;463700;256;27516;-80
2021/04/13 03:35:43;;;;;;;10.70;8.27;;;1.40;99.90;;;;;;463702;254;27493;-79
2021/04/13 03:37:44;;;;;;;10.00;8.48;;;1.30;99.90;;;;;;463648;256;27461;-80
2021/04/13 03:39:45;;;;;;;11.43;8.73;;;1.20;99.90;;;;;;464058;256;27993;-76
2021/04/13 03:41:46;;;;;;;8.35;7.22;;;1.20;99.90;;;;;;464097;256;27447;-78
2021/04/13 03:43:48;;;;;;;8.40;7.50;;;1.10;99.90;;;;;;464071;256;27468;-78
2021/04/13 03:45:49;;;;;;;10.98;8.90;;;1.10;99.90;;;;;;464154;254;27451;-78
2021/04/13 03:47:50;;;;;;;11.00;9.05;;;1.10;99.90;;;;;;463705;256;27537;-78
2021/04/13 03:49:51;;;;;;;12.00;8.60;;;1.00;99.90;;;;;;463742;256;27466;-80
2021/04/13 03:51:53;;;;;;;13.45;9.93;;;1.00;99.90;;;;;;463649;257;27479;-79
2021/04/13 03:53:54;;;;;;;9.20;8.10;;;1.00;99.90;;;;;;464002;256;27581;-77
2021/04/13 03:55:55;;;;;;;11.60;9.10;;;1.00;99.90;;;;;;463933;254;27467;-78
2021/04/13 03:57:56;;;;;;;12.25;9.35;;;0.90;99.90;;;;;;464089;256;27532;-78
2021/04/13 03:59:58;;;;;;;11.75;9.23;;;0.90;99.90;;;;;;464035;256;28109;-79
2021/04/13 04:01:59;;;;;;;10.20;9.02;;;0.90;99.90;;;;;;464076;257;28108;-77
2021/04/13 04:04:00;;;;;;;13.50;10.02;;;0.80;99.90;;;;;;464036;257;27434;-77
2021/04/13 04:06:02;;;;;;;15.55;11.48;;;0.80;99.90;;;;;;464076;254;27566;-78
2021/04/13 04:08:05;;;;;;;12.20;10.15;;;0.70;99.90;;;;;;464027;257;27470;-79
2021/04/13 04:10:04;;;;;;;13.32;8.35;;;0.70;99.90;;;;;;464013;256;27489;-77
2021/04/13 04:12:05;;;;;;;11.10;8.57;;;0.70;99.90;;;;;;464083;257;27463;-80
2021/04/13 04:14:06;;;;;;;14.13;10.23;;;0.60;99.90;;;;;;464153;256;27461;-77
2021/04/13 04:16:08;;;;;;;11.00;9.23;;;0.60;99.90;;;;;;464065;254;28062;-81
2021/04/13 04:18:09;;;;;;;9.38;8.13;;;0.70;99.90;;;;;;463898;256;28000;-80
2021/04/13 04:20:11;;;;;;;15.20;9.27;;;0.60;99.90;;;;;;463928;257;28108;-77
2021/04/13 04:22:11;;;;;;;9.77;8.32;;;0.60;99.90;;;;;;464268;256;27526;-78
2021/04/13 04:24:13;;;;;;;10.57;8.77;;;0.60;99.90;;;;;;464180;257;27522;-76
2021/04/13 04:26:14;;;;;;;10.73;8.57;;;0.60;99.90;;;;;;464103;254;27476;-77
2021/04/13 04:28:15;;;;;;;12.40;9.82;;;0.60;99.90;;;;;;464124;256;27576;-77
2021/04/13 04:30:16;;;;;;;11.38;9.07;;;0.60;99.90;;;;;;464088;256;27503;-77
2021/04/13 04:32:18;;;;;;;10.75;8.38;;;0.60;99.90;;;;;;463810;256;27520;-79
2021/04/13 04:34:19;;;;;;;10.57;8.40;;;0.60;99.90;;;;;;463801;257;27531;-78
2021/04/13 04:36:20;;;;;;;9.57;8.52;;;0.70;99.90;;;;;;463807;254;28021;-78
2021/04/13 04:38:21;;;;;;;13.00;9.70;;;0.70;99.90;;;;;;463774;257;28090;-79
2021/04/13 04:40:23;;;;;;;10.38;8.50;;;0.60;99.90;;;;;;464072;256;28137;-79
2021/04/13 04:42:28;;;;;;;10.00;7.95;;;0.50;99.90;;;;;;463744;257;27479;-80
2021/04/13 04:44:25;;;;;;;10.50;8.88;;;0.40;99.90;;;;;;463686;256;27463;-78
2021/04/13 04:46:26;;;;;;;10.23;8.50;;;0.40;99.90;;;;;;463876;254;27442;-76
2021/04/13 04:48:28;;;;;;;10.07;8.20;;;0.30;99.90;;;;;;464003;257;27457;-80
2021/04/13 04:50:29;;;;;;;10.05;7.30;;;0.30;99.90;;;;;;463950;256;27477;-76
2021/04/13 04:52:30;;;;;;;10.43;8.45;;;0.30;99.90;;;;;;463938;257;27530;-76
2021/04/13 04:54:31;;;;;;;11.23;9.27;;;0.20;99.90;;;;;;463877;256;27533;-80
2021/04/13 04:56:33;;;;;;;9.98;8.32;;;0.20;99.90;;;;;;463958;254;27994;-78
2021/04/13 04:58:34;;;;;;;12.25;8.75;;;0.20;99.90;;;;;;463910;256;28193;-78
2021/04/13 05:00:35;;;;;;;10.90;8.15;;;0.30;99.90;;;;;;463855;257;28111;-77
2021/04/13 05:02:36;;;;;;;12.02;8.82;;;0.30;99.90;;;;;;463887;257;27498;-77
2021/04/13 05:04:38;;;;;;;11.35;9.05;;;0.30;99.90;;;;;;463888;256;27527;-79
2021/04/13 05:06:39;;;;;;;15.82;11.70;;;0.40;99.90;;;;;;463779;254;27586;-78
2021/04/13 05:08:40;;;;;;;11.23;8.98;;;0.40;99.90;;;;;;463814;257;27453;-78
2021/04/13 05:10:41;;;;;;;16.12;12.10;;;0.40;99.90;;;;;;464039;257;27449;-77
2021/04/13 05:12:43;;;;;;;20.92;13.27;;;0.40;99.90;;;;;;464011;257;27499;-78
2021/04/13 05:14:44;;;;;;;15.55;12.05;;;0.50;99.90;;;;;;464215;257;27940;-78
2021/04/13 05:16:45;;;;;;;20.05;12.80;;;0.60;99.90;;;;;;464042;254;27929;-79
2021/04/13 05:18:46;;;;;;;15.02;10.68;;;0.70;99.90;;;;;;464089;256;27538;-78
2021/04/13 05:20:48;;;;;;;19.75;12.70;;;0.70;99.90;;;;;;463824;257;27566;-81
2021/04/13 05:22:49;;;;;;;25.17;15.20;;;0.70;99.90;;;;;;464244;253;27538;-77
2021/04/13 05:24:50;;;;;;;18.87;13.65;;;0.70;99.90;;;;;;464140;254;27441;-80
2021/04/13 05:26:51;;;;;;;18.55;12.95;;;0.70;99.90;;;;;;464072;254;27446;-79
2021/04/13 05:28:53;;;;;;;21.98;14.82;;;0.70;99.90;;;;;;464025;256;27558;-79
2021/04/13 05:30:54;;;;;;;17.92;13.48;;;0.80;99.90;;;;;;464099;256;27965;-78
2021/04/13 05:32:55;;;;;;;23.33;15.45;;;0.70;99.90;;;;;;464276;256;27907;-76
2021/04/13 05:34:57;;;;;;;24.58;16.25;;;0.70;99.90;;;;;;464133;257;27450;-78
2021/04/13 05:36:58;;;;;;;23.90;16.20;;;0.70;99.90;;;;;;464048;254;27448;-77
2021/04/13 05:38:59;;;;;;;22.35;14.10;;;0.80;99.90;;;;;;464030;257;27442;-78
2021/04/13 05:41:00;;;;;;;27.42;16.30;;;0.80;99.90;;;;;;464041;257;27461;-79
2021/04/13 05:43:02;;;;;;;24.27;15.90;;;0.90;99.90;;;;;;464093;257;27553;-79
2021/04/13 05:45:03;;;;;;;19.45;13.73;;;0.90;99.90;;;;;;464010;257;28458;-79
2021/04/13 05:47:04;;;;;;;25.60;16.40;;;1.00;99.90;;;;;;464197;249;28139;-76
2021/04/13 05:49:05;;;;;;;26.02;16.65;;;1.00;99.90;;;;;;463893;256;27517;-77
2021/04/13 05:51:07;;;;;;;30.52;18.87;;;1.00;99.90;;;;;;463954;256;27455;-79
2021/04/13 05:53:08;;;;;;;29.92;17.25;;;1.00;99.90;;;;;;463926;256;27453;-80
2021/04/13 05:55:09;;;;;;;27.98;17.02;;;1.20;99.90;;;;;;463920;253;27477;-78
2021/04/13 05:57:10;;;;;;;25.98;17.40;;;1.10;99.90;;;;;;462475;252;27522;-81
2021/04/13 05:59:12;;;;;;;25.77;16.98;;;1.10;99.90;;;;;;463496;256;27975;-77
2021/04/13 06:01:13;;;;;;;28.52;17.30;;;1.20;99.90;;;;;;463361;256;28360;-80
2021/04/13 06:03:14;;;;;;;25.40;18.73;;;1.10;99.90;;;;;;463439;256;27471;-77
2021/04/13 06:05:15;;;;;;;33.58;18.80;;;1.20;99.90;;;;;;463387;256;27478;-77
2021/04/13 06:07:17;;;;;;;23.92;17.17;;;1.20;99.90;;;;;;463956;256;27580;-79
2021/04/13 06:09:18;;;;;;;28.23;17.58;;;1.20;99.90;;;;;;464006;256;27600;-77
2021/04/13 06:11:19;;;;;;;22.15;15.45;;;1.20;99.90;;;;;;464312;252;27584;-77
2021/04/13 06:13:20;;;;;;;28.92;18.23;;;1.30;99.90;;;;;;464324;256;27553;-80
2021/04/13 06:15:22;;;;;;;29.23;19.25;;;1.30;99.90;;;;;;464301;256;28101;-80
2021/04/13 06:17:23;;;;;;;26.77;17.70;;;1.40;99.90;;;;;;465618;251;28251;-79
2021/04/13 06:19:25;;;;;;;28.52;19.77;;;1.40;99.90;;;;;;466160;251;27432;-77
2021/04/13 06:21:25;;;;;;;24.90;17.37;;;1.40;99.90;;;;;;476476;250;27484;-77
2021/04/13 06:23:27;;;;;;;27.42;18.73;;;1.40;99.90;;;;;;476614;249;27445;-79
2021/04/13 06:25:28;;;;;;;30.23;19.23;;;1.40;99.90;;;;;;476531;246;27495;-79
2021/04/13 06:27:29;;;;;;;30.62;19.58;;;1.50;99.90;;;;;;476361;249;27545;-78
2021/04/13 06:29:33;;;;;;;30.05;19.33;;;1.50;99.90;;;;;;476281;249;28084;-78
2021/04/13 06:31:32;;;;;;;28.25;19.58;;;1.50;99.90;;;;;;476207;249;28053;-78
2021/04/13 06:33:33;;;;;;;28.83;18.92;;;1.50;99.90;;;;;;476581;249;28781;-77
2021/04/13 06:35:34;;;;;;;28.55;18.70;;;1.50;99.90;;;;;;476634;246;27465;-80
2021/04/13 06:37:38;;;;;;;29.42;18.17;;;1.60;99.90;;;;;;476357;249;27625;-76
2021/04/13 06:39:39;;;;;;;29.00;18.95;;;1.60;99.90;;;;;;476366;249;28140;-77
2021/04/13 06:41:41;;;;;;;28.02;18.50;;;1.60;99.90;;;;;;476268;249;29181;-78
2021/04/13 06:43:42;;;;;;;30.92;19.20;;;1.60;99.90;;;;;;476335;249;27580;-78
2021/04/13 06:45:43;;;;;;;27.52;17.90;;;1.70;99.90;;;;;;476282;246;27659;-80
2021/04/13 06:47:46;;;;;;;28.15;17.90;;;1.80;99.90;;;;;;476352;249;27556;-77
2021/04/13 06:49:46;;;;;;;27.85;17.52;;;1.90;99.90;;;;;;476585;250;27544;-77
2021/04/13 06:51:47;;;;;;;26.62;16.95;;;1.70;99.90;;;;;;476355;249;27532;-81
2021/04/13 06:53:48;;;;;;;28.38;17.67;;;1.80;99.90;;;;;;476641;249;27965;-78
2021/04/13 06:55:49;;;;;;;28.05;18.80;;;1.90;99.90;;;;;;476514;246;27977;-79
2021/04/13 06:57:51;;;;;;;23.95;17.23;;;1.80;99.90;;;;;;476287;249;27513;-80
2021/04/13 06:59:52;;;;;;;26.02;17.85;;;1.80;99.90;;;;;;476354;249;27600;-76
2021/04/13 07:01:53;;;;;;;26.10;18.15;;;1.90;99.90;;;;;;476321;249;27539;-80
2021/04/13 07:03:55;;;;;;;23.87;15.93;;;2.00;99.90;;;;;;476283;249;27525;-78
2021/04/13 07:05:56;;;;;;;28.95;17.52;;;2.10;99.90;;;;;;476270;247;27540;-79
2021/04/13 07:07:57;;;;;;;23.45;15.77;;;2.10;99.90;;;;;;476585;249;27419;-77
2021/04/13 07:09:59;;;;;;;26.35;17.27;;;2.20;99.90;;;;;;476236;249;28810;-76
2021/04/13 07:12:00;;;;;;;24.37;16.95;;;2.30;99.90;;;;;;476313;249;27969;-80
2021/04/13 07:14:01;;;;;;;18.58;14.10;;;2.30;99.90;;;;;;476176;249;27611;-77
2021/04/13 07:16:02;;;;;;;22.98;15.38;;;2.40;99.90;;;;;;476358;246;27519;-79
2021/04/13 07:18:03;;;;;;;21.40;14.82;;;2.50;99.90;;;;;;476487;249;27513;-79
2021/04/13 07:20:05;;;;;;;19.58;14.95;;;2.50;99.90;;;;;;476561;249;27477;-78
2021/04/13 07:22:06;;;;;;;23.25;16.37;;;2.40;99.90;;;;;;476217;247;27562;-79
2021/04/13 07:24:07;;;;;;;21.85;15.05;;;2.50;99.90;;;;;;476292;249;28013;-77
2021/04/13 07:26:08;;;;;;;24.85;16.90;;;2.50;99.90;;;;;;476252;246;27948;-79
2021/04/13 07:28:10;;;;;;;20.50;15.20;;;2.50;99.90;;;;;;476285;249;27575;-79
2021/04/13 07:30:11;;;;;;;24.48;16.15;;;2.50;99.90;;;;;;476602;249;27513;-76
2021/04/13 07:32:13;;;;;;;23.42;16.12;;;2.50;99.90;;;;;;476622;249;27468;-78
2021/04/13 07:34:13;;;;;;;21.45;14.95;;;2.60;99.90;;;;;;476613;249;27519;-77
2021/04/13 07:36:15;;;;;;;21.50;13.80;;;2.80;99.90;;;;;;476421;246;27505;-76
2021/04/13 07:38:16;;;;;;;21.45;14.70;;;2.90;99.90;;;;;;476264;249;27583;-80
2021/04/13 07:40:17;;;;;;;19.48;14.50;;;2.80;99.90;;;;;;476374;249;27604;-79
2021/04/13 07:42:18;;;;;;;23.12;15.32;;;2.80;99.90;;;;;;476396;249;27996;-78
2021/04/13 07:44:20;;;;;;;20.70;14.48;;;2.80;99.90;;;;;;476475;249;27562;-76
2021/04/13 07:46:21;;;;;;;22.52;14.00;;;2.90;99.90;;;;;;476459;246;27629;-78
2021/04/13 07:48:22;;;;;;;20.67;14.60;;;3.00;99.90;;;;;;476558;249;28393;-77
2021/04/13 07:50:23;;;;;;;18.23;13.30;;;3.10;99.90;;;;;;476561;249;27490;-80
2021/04/13 07:52:25;;;;;;;18.98;13.50;;;3.00;99.90;;;;;;476570;249;27455;-79
2021/04/13 07:54:26;;;;;;;20.62;13.02;;;3.00;99.90;;;;;;476579;249;28052;-77
2021/04/13 07:56:27;;;;;;;23.23;13.65;;;2.90;99.90;;;;;;476281;246;27987;-80
2021/04/13 07:58:28;;;;;;;18.40;13.32;;;2.90;99.90;;;;;;476550;249;27544;-76
2021/04/13 08:00:30;;;;;;;21.20;12.32;;;3.10;99.90;;;;;;476576;249;27444;-78
2021/04/13 08:02:31;;;;;;;16.77;12.40;;;3.10;99.90;;;;;;476403;249;27536;-77
2021/04/13 08:04:32;;;;;;;19.30;13.25;;;3.20;99.90;;;;;;476754;249;27401;-76
2021/04/13 08:06:34;;;;;;;18.87;12.00;;;3.20;99.90;;;;;;476386;246;27611;-79
2021/04/13 08:08:35;;;;;;;18.17;11.63;;;3.30;99.90;;;;;;476542;249;28103;-77
2021/04/13 08:10:36;;;;;;;14.10;10.43;;;3.40;99.90;;;;;;476597;249;28128;-79
2021/04/13 08:12:37;;;;;;;15.13;10.73;;;3.40;99.90;;;;;;476609;249;27485;-77
2021/04/13 08:14:39;;;;;;;14.48;10.82;;;3.60;99.90;;;;;;476343;249;27618;-77
2021/04/13 08:16:40;;;;;;;15.93;11.20;;;3.70;99.90;;;;;;476580;246;27837;-77
2021/04/13 08:18:41;;;;;;;17.80;11.10;;;3.80;99.90;;;;;;476357;249;27560;-77
2021/04/13 08:20:43;;;;;;;14.18;10.68;;;3.70;99.90;;;;;;476223;249;27651;-79
2021/04/13 08:22:44;;;;;;;13.93;10.63;;;4.00;99.90;;;;;;476278;249;28135;-80
2021/04/13 08:24:45;;;;;;;13.62;10.15;;;4.20;99.90;;;;;;476214;249;28165;-78
2021/04/13 08:26:46;;;;;;;14.90;10.60;;;4.30;99.90;;;;;;476443;246;27609;-76
2021/04/13 08:28:47;;;;;;;16.02;10.75;;;4.00;99.90;;;;;;476226;249;27639;-79
2021/04/13 08:30:49;;;;;;;16.40;11.05;;;3.90;99.90;;;;;;476549;249;27433;-78
2021/04/13 08:32:50;;;;;;;16.23;11.88;;;3.80;99.90;;;;;;476574;249;27627;-77
2021/04/13 08:34:51;;;;;;;12.37;10.23;;;4.10;99.90;;;;;;476700;249;27977;-76
2021/04/13 08:36:53;;;;;;;12.30;10.00;;;4.10;99.90;;;;;;476508;246;27847;-79
2021/04/13 08:38:55;;;;;;;14.30;10.40;;;4.40;99.90;;;;;;476661;249;27433;-76
2021/04/13 08:40:57;;;;;;;13.02;11.05;;;4.50;99.90;;;;;;476488;249;27569;-79
2021/04/13 08:42:56;;;;;;;13.93;11.15;;;4.80;99.90;;;;;;476733;249;27450;-78
2021/04/13 08:44:57;;;;;;;13.68;10.60;;;5.00;99.90;;;;;;476490;249;27512;-79
2021/04/13 08:46:59;;;;;;;14.50;11.45;;;5.10;99.90;;;;;;476504;246;28171;-78
2021/04/13 08:49:01;;;;;;;15.55;11.63;;;4.90;99.90;;;;;;476763;249;27441;-77
2021/04/13 08:51:01;;;;;;;12.65;10.23;;;5.00;99.90;;;;;;476765;249;27409;-76
2021/04/13 08:53:03;;;;;;;14.85;10.63;;;5.30;99.90;;;;;;476431;249;27568;-78
2021/04/13 08:55:04;;;;;;;16.37;10.88;;;5.50;99.90;;;;;;476559;249;28100;-78
2021/04/13 08:57:05;;;;;;;11.65;9.93;;;5.60;99.90;;;;;;476130;249;27609;-80
2021/04/13 08:59:06;;;;;;;14.13;10.10;;;5.60;99.90;;;;;;476492;249;27545;-78
2021/04/13 09:01:08;;;;;;;14.20;10.43;;;5.30;99.90;;;;;;476550;249;27445;-77
2021/04/13 09:03:09;;;;;;;15.90;11.80;;;5.30;99.90;;;;;;476430;249;27611;-78
2021/04/13 09:05:10;;;;;;;14.13;11.88;;;5.10;99.90;;;;;;476214;246;28709;-78
2021/04/13 09:07:11;;;;;;;14.10;11.48;;;5.10;99.90;;;;;;476576;249;27512;-77
2021/04/13 09:09:13;;;;;;;12.27;10.55;;;5.00;99.90;;;;;;476322;249;27591;-78
2021/04/13 09:11:14;;;;;;;12.13;10.40;;;4.90;99.90;;;;;;476181;249;27712;-78
2021/04/13 09:13:15;;;;;;;14.63;9.90;;;4.80;99.90;;;;;;476209;249;27624;-78
2021/04/13 09:15:16;;;;;;;11.77;9.52;;;4.90;99.90;;;;;;476469;246;29380;-79
2021/04/13 09:17:19;;;;;;;13.53;9.80;;;4.80;99.90;;;;;;476558;249;28210;-76
2021/04/13 09:19:19;;;;;;;12.55;9.88;;;5.10;99.90;;;;;;476326;249;28955;-81
2021/04/13 09:21:20;;;;;;;15.00;10.90;;;4.90;99.90;;;;;;476239;249;27544;-80
2021/04/13 09:23:22;;;;;;;12.30;9.27;;;4.80;99.90;;;;;;476558;249;27552;-78
2021/04/13 09:25:23;;;;;;;13.30;10.50;;;4.80;99.90;;;;;;476256;246;27508;-78
2021/04/13 09:27:24;;;;;;;16.40;11.60;;;4.80;99.90;;;;;;476636;249;28144;-76
2021/04/13 09:29:25;;;;;;;15.43;11.82;;;4.60;99.90;;;;;;476657;249;27597;-79
2021/04/13 09:31:30;;;;;;;17.02;10.93;;;4.60;99.90;;;;;;476195;249;27619;-78
2021/04/13 09:33:31;;;;;;;15.52;12.18;;;4.60;99.90;;;;;;476358;249;27599;-79
2021/04/13 09:35:34;;;;;;;13.77;11.00;;;4.60;99.90;;;;;;476370;247;27986;-75
2021/04/13 09:37:33;;;;;;;18.33;13.35;;;4.60;99.90;;;;;;476455;249;27457;-77
2021/04/13 09:39:35;;;;;;;21.12;14.95;;;4.60;99.90;;;;;;476647;249;27461;-77
2021/04/13 09:41:36;;;;;;;16.25;12.55;;;4.60;99.90;;;;;;476272;249;27623;-77
2021/04/13 09:43:37;;;;;;;14.77;11.60;;;4.70;99.90;;;;;;476608;249;27607;-79
2021/04/13 09:45:38;;;;;;;13.35;10.23;;;4.80;99.90;;;;;;476552;247;28098;-78
2021/04/13 09:47:40;;;;;;;13.70;10.60;;;5.20;99.90;;;;;;476047;249;27540;-76
2021/04/13 09:49:41;;;;;;;13.90;10.77;;;5.30;99.90;;;;;;476348;249;27520;-77
2021/04/13 09:51:42;;;;;;;13.70;10.00;;;5.20;99.90;;;;;;476490;249;27552;-76
2021/04/13 09:53:44;;;;;;;12.07;8.85;;;5.30;99.90;;;;;;476582;249;27437;-74
2021/04/13 09:55:45;;;;;;;11.90;9.70;;;5.50;99.90;;;;;;476489;247;28257;-78
2021/04/13 09:57:46;;;;;;;12.82;9.55;;;5.30;99.90;;;;;;476249;249;28974;-79
2021/04/13 09:59:47;;;;;;;12.27;10.25;;;5.20;99.90;;;;;;476339;249;27488;-79
2021/04/13 10:01:48;;;;;;;15.20;11.00;;;5.10;99.90;;;;;;476290;249;27568;-80
2021/04/13 10:03:50;;;;;;;12.57;10.37;;;5.40;99.90;;;;;;476458;249;28491;-79
2021/04/13 10:05:51;;;;;;;15.68;9.20;;;5.50;99.90;;;;;;476087;246;28978;-78
2021/04/13 10:07:53;;;;;;;11.32;8.75;;;5.60;99.90;;;;;;476138;249;28043;-79
2021/04/13 10:09:54;;;;;;;10.13;8.55;;;5.50;99.90;;;;;;476240;249;27997;-79
2021/04/13 10:11:55;;;;;;;11.20;8.95;;;5.70;99.90;;;;;;476267;249;27655;-80
2021/04/13 10:13:56;;;;;;;12.80;8.15;;;5.90;99.90;;;;;;476275;249;27529;-79
2021/04/13 10:15:57;;;;;;;9.97;8.97;;;6.20;99.90;;;;;;476488;246;27683;-79
2021/04/13 10:17:59;;;;;;;11.80;9.40;;;6.60;99.90;;;;;;476517;249;27532;-80
2021/04/13 10:20:00;;;;;;;11.07;9.00;;;6.60;99.90;;;;;;476577;249;28590;-78
2021/04/13 10:22:01;;;;;;;14.00;9.67;;;6.30;99.90;;;;;;476298;249;27994;-79
2021/04/13 10:24:02;;;;;;;11.00;8.77;;;6.40;99.90;;;;;;476488;249;28478;-79
2021/04/13 10:26:04;;;;;;;12.70;8.30;;;6.30;98.40;;;;;;476528;247;28254;-79
2021/04/13 10:28:05;;;;;;;12.40;8.70;;;6.30;99.50;;;;;;476552;249;28244;-79